London Airport
CYXU : now visible

Airfield :











YOU CAN JOIN US ON...

 
LOGIN :

Register | Disclaimer

   EN    FR    IT 

 









Legend :    VFR   Marginal VFR   IFR   Intensive IFR   Very Intensive IFR
Visi :
Ceiling :
>= 8 km
>= 3000ft
5 to 8 km
1000 to 3000 ft
1500m to 5 km
500 to 1000 ft
800 to 1500m
200 to 500 ft
< 800m
< 200 ft
Symbols :   Thunderstorms  Fog  Heavy snow  Heavy precipitations  Wind > 20 kt






- Airport Elevation : 912 ft
- IATA code : YXU


CYXU - London

CURRENT METAR :
  • 290600Z 14003KT 130V250 15SM SCT024 11/11 A2994 RMK SC4 SLP143

EXPIRED METARs :
  • 290500Z 32006KT 15SM FEW200 13/12 A2994 RMK CS2 SLP143
  • 290400Z 30006KT 15SM FEW030 BKN170 13/12 A2995 RMK SC1CS4 SLP145
  • 290300Z 30005KT 15SM FEW080 BKN200 13/12 A2995 RMK AC1CS7 AC TR SLP147
  • 290200Z 29006KT 15SM SCT084 14/11 A2994 RMK AC4 SLP141

TAF TAF CYXU
Valid from the 29 at 06:00 until the 30 at 06:00 UTC


290540Z 2906/3006 32005KT P6SM FEW080 SCT180
TEMPO 2906/2910 BKN040 OVC080
BECMG 2906/2908 02008KT
FM291000 02008KT P6SM BKN040 OVC080
TEMPO 2910/2914 5SM BR BKN015 OVC040
FM291700 02012KT P6SM SCT040
TEMPO 2917/2920 P6SM -SHRA BKN040
PROB30 2917/2920 5SM TSRA BR BKN020 OVC040CB
FM300000 36012KT P6SM FEW040 SCT080
FM300200 36008KT P6SM SKC RMK NXT FCST BY 291200Z
CZYZ FIR / North America



MET'MAP, your aeronautical weather chart ! - Copyright ORBIFLY December 2007 - Disclaimer

ORBIFLY MET'MAP TEAM :

Programming & Development : Alexandra Zaïnal
Original concept : Baudouin d'Aumeries
Technical & hardware support : Manuel Goepfert
Assistance : Marc-Olivier Méhu




SOURCES & CREDITS :

   NOAA       Earth
Advisory